createdAt,value
2022-08-23T00:02:00.811Z,15.53
2022-08-23T00:04:02.546Z,15.46
2022-08-23T00:06:03.593Z,15.31
2022-08-23T00:08:05.241Z,15.17
2022-08-23T00:10:07.048Z,15.03
2022-08-23T00:12:08.766Z,15.06
2022-08-23T00:14:10.445Z,14.9
2022-08-23T00:16:12.141Z,14.86
2022-08-23T00:18:13.273Z,14.89
2022-08-23T00:20:14.860Z,14.87
2022-08-23T00:22:15.980Z,14.88
2022-08-23T00:24:17.744Z,14.84
2022-08-23T00:26:19.309Z,14.83
2022-08-23T00:28:20.915Z,14.83
2022-08-23T00:30:22.531Z,14.82
2022-08-23T00:32:23.987Z,14.75
2022-08-23T00:34:24.857Z,14.69
2022-08-23T00:36:25.891Z,14.6
2022-08-23T00:38:33.537Z,14.51
2022-08-23T00:40:28.812Z,14.35
2022-08-23T00:42:29.790Z,14.24
2022-08-23T00:44:31.786Z,14.16
2022-08-23T00:46:33.155Z,14.06
2022-08-23T00:48:34.385Z,14.08
2022-08-23T00:50:35.783Z,14.2
2022-08-23T00:52:37.568Z,14.12
2022-08-23T00:54:39.067Z,14.04
2022-08-23T00:56:40.928Z,14.04
2022-08-23T00:58:41.915Z,13.95
2022-08-23T01:00:43.317Z,13.85
2022-08-23T01:02:44.552Z,13.76
2022-08-23T01:04:46.218Z,13.6
2022-08-23T01:06:47.222Z,13.68
2022-08-23T01:08:48.841Z,13.64
2022-08-23T01:10:50.395Z,13.47
2022-08-23T01:12:52.077Z,13.34
2022-08-23T01:14:53.550Z,13.36
2022-08-23T01:16:54.579Z,13.57
2022-08-23T01:18:55.959Z,13.58
2022-08-23T01:20:57.801Z,13.5
2022-08-23T01:22:59.406Z,13.6
2022-08-23T01:25:06.718Z,13.57
2022-08-23T01:27:01.837Z,13.5
2022-08-23T01:29:03.282Z,13.49
2022-08-23T01:31:06.509Z,13.46
2022-08-23T01:33:06.740Z,13.34
2022-08-23T01:35:08.273Z,13.27
2022-08-23T01:37:10.112Z,13.09
2022-08-23T01:39:11.458Z,13.01
2022-08-23T01:41:12.499Z,13.15
2022-08-23T01:43:14.324Z,13.26
2022-08-23T01:45:16.256Z,13.2
2022-08-23T01:47:17.477Z,13.12
2022-08-23T01:49:18.927Z,13.03
2022-08-23T01:51:19.994Z,12.98
2022-08-23T01:53:21.013Z,12.95
2022-08-23T01:55:22.165Z,12.91
2022-08-23T01:57:23.806Z,12.91
2022-08-23T01:59:25.481Z,12.86
2022-08-23T02:01:26.923Z,12.87
2022-08-23T02:03:27.872Z,12.91
2022-08-23T02:05:29.595Z,12.84
2022-08-23T02:07:31.314Z,12.84
2022-08-23T02:09:33.123Z,12.81
2022-08-23T02:11:34.831Z,12.8
2022-08-23T02:13:36.519Z,12.8
2022-08-23T02:15:37.727Z,12.71
2022-08-23T02:17:38.787Z,12.69
2022-08-23T02:19:39.800Z,12.76
2022-08-23T02:21:40.823Z,12.67
2022-08-23T02:23:41.972Z,12.59
2022-08-23T02:25:43.112Z,12.55
2022-08-23T02:27:44.974Z,12.54
2022-08-23T02:29:46.022Z,12.7
2022-08-23T02:31:47.333Z,12.69
2022-08-23T02:33:48.435Z,12.66
2022-08-23T02:35:50.241Z,12.55
2022-08-23T02:37:51.532Z,12.52
2022-08-23T02:39:52.666Z,12.53
2022-08-23T02:41:54.031Z,12.45
2022-08-23T02:43:55.549Z,12.42
2022-08-23T02:45:57.197Z,12.33
2022-08-23T02:47:58.878Z,12.25
2022-08-23T02:50:00.658Z,12.17
2022-08-23T02:52:01.641Z,12.1
2022-08-23T02:54:03.226Z,12.15
2022-08-23T02:56:04.438Z,12.22
2022-08-23T02:58:05.497Z,12.32
2022-08-23T03:00:07.274Z,12.28
2022-08-23T03:02:08.520Z,12.24
2022-08-23T03:04:09.968Z,12.26
2022-08-23T03:06:24.219Z,12.23
2022-08-23T03:08:13.387Z,12.2
2022-08-23T03:10:14.883Z,12.05
2022-08-23T03:12:16.277Z,11.97
2022-08-23T03:14:17.882Z,11.88
2022-08-23T03:16:19.567Z,11.8
2022-08-23T03:18:20.499Z,11.79
2022-08-23T03:20:22.440Z,11.8
2022-08-23T03:22:24.319Z,11.78
2022-08-23T03:24:25.366Z,11.75
2022-08-23T03:26:26.645Z,11.78
2022-08-23T03:28:27.791Z,11.75
2022-08-23T03:30:28.817Z,11.72
2022-08-23T03:32:29.880Z,11.72
2022-08-23T03:34:31.024Z,11.67
2022-08-23T03:36:32.046Z,11.68
2022-08-23T03:38:33.898Z,11.61
2022-08-23T03:40:35.414Z,11.53
2022-08-23T03:42:37.249Z,11.56
2022-08-23T03:44:38.920Z,11.7
2022-08-23T03:46:40.246Z,11.7
2022-08-23T03:48:42.130Z,11.6
2022-08-23T03:50:43.771Z,11.59
2022-08-23T03:52:45.164Z,11.55
2022-08-23T03:54:46.686Z,11.48
2022-08-23T03:56:48.413Z,11.44
2022-08-23T03:58:50.283Z,11.52
2022-08-23T04:00:52.154Z,11.49
2022-08-23T04:02:53.896Z,11.53
2022-08-23T04:04:55.165Z,11.51
2022-08-23T04:06:57.049Z,11.51
2022-08-23T04:08:58.881Z,11.49
2022-08-23T04:11:00.504Z,11.48
2022-08-23T04:13:02.011Z,11.41
2022-08-23T04:15:03.639Z,11.29
2022-08-23T04:17:05.416Z,11.3
2022-08-23T04:19:08.721Z,11.28
2022-08-23T04:21:08.524Z,11.26
2022-08-23T04:23:09.633Z,11.23
2022-08-23T04:25:34.134Z,11.28
2022-08-23T04:27:12.847Z,11.31
2022-08-23T04:29:13.988Z,11.29
2022-08-23T04:31:15.451Z,11.32
2022-08-23T04:35:18.357Z,11.27
2022-08-23T04:37:20.060Z,11.3
2022-08-23T04:39:21.287Z,11.32
2022-08-23T04:41:22.352Z,11.31
2022-08-23T04:43:23.757Z,11.29
2022-08-23T04:45:24.772Z,11.27
2022-08-23T04:47:26.245Z,11.25
2022-08-23T04:49:27.999Z,11.21
2022-08-23T04:51:29.543Z,11.17
2022-08-23T04:53:31.025Z,11.29
2022-08-23T04:57:33.128Z,11.87
2022-08-23T04:59:34.350Z,12.15
2022-08-23T05:01:35.411Z,12.29
2022-08-23T05:03:36.843Z,12.29
2022-08-23T05:05:38.229Z,12.47
2022-08-23T05:07:42.054Z,12.82
2022-08-23T05:09:41.372Z,13.31
2022-08-23T05:11:42.700Z,13.52
2022-08-23T05:13:43.780Z,13.88
2022-08-23T05:15:44.779Z,14.25
2022-08-23T05:17:45.801Z,14.5
2022-08-23T05:19:47.200Z,14.01
2022-08-23T05:21:48.612Z,13.76
2022-08-23T05:23:50.807Z,13.54
2022-08-23T05:25:52.500Z,13.57
2022-08-23T05:27:52.904Z,14.02
2022-08-23T05:29:54.671Z,14.22
2022-08-23T05:31:55.697Z,14.3
2022-08-23T05:33:57.490Z,15.01
2022-08-23T05:35:59.115Z,15.14
2022-08-23T05:38:00.941Z,15.36
2022-08-23T05:40:02.339Z,15.27
2022-08-23T05:42:03.436Z,15.13
2022-08-23T05:44:05.089Z,15.37
2022-08-23T05:46:06.462Z,15.42
2022-08-23T05:48:07.427Z,15.61
2022-08-23T05:50:08.946Z,15.3
2022-08-23T05:52:10.274Z,15.54
2022-08-23T05:54:11.288Z,15.91
2022-08-23T05:56:13.032Z,16
2022-08-23T05:58:14.281Z,16.32
2022-08-23T06:00:16.057Z,16.23
2022-08-23T06:02:17.511Z,15.91
2022-08-23T06:04:18.664Z,15.56
2022-08-23T06:06:20.427Z,15.28
2022-08-23T06:08:21.489Z,15.02
2022-08-23T06:10:22.649Z,15.44
2022-08-23T06:12:23.547Z,15.15
2022-08-23T06:16:27.124Z,15.16
2022-08-23T06:18:28.161Z,15.03
2022-08-23T06:20:29.232Z,14.83
2022-08-23T06:22:30.403Z,14.86
2022-08-23T06:24:31.654Z,14.65
2022-08-23T06:26:33.208Z,14.56
2022-08-23T06:28:34.873Z,14.72
2022-08-23T06:30:39.605Z,15.15
2022-08-23T06:32:37.504Z,15.7
2022-08-23T06:34:38.649Z,15.83
2022-08-23T06:36:40.265Z,16.45
2022-08-23T06:38:42.068Z,16.79
2022-08-23T06:40:42.969Z,17.09
2022-08-23T06:42:44.069Z,17.32
2022-08-23T06:43:27.847Z,17.1
2022-08-23T06:45:32.412Z,16.73
2022-08-23T06:47:30.149Z,17.56
2022-08-23T06:49:31.590Z,17.75
2022-08-23T06:51:33.339Z,17.74
2022-08-23T06:53:34.421Z,17.4
2022-08-23T06:55:35.294Z,17.13
2022-08-23T06:57:36.768Z,17.37
2022-08-23T06:59:37.808Z,17.61
2022-08-23T07:01:45.482Z,17.99
2022-08-23T07:03:40.509Z,17.81
2022-08-23T07:05:41.398Z,18.06
2022-08-23T07:07:44.084Z,18.02
2022-08-23T07:09:44.489Z,17.89
2022-08-23T07:11:45.954Z,18.42
2022-08-23T07:13:47.738Z,18.83
2022-08-23T07:15:49.984Z,18.53
2022-08-23T07:17:50.849Z,18.23
2022-08-23T07:19:52.030Z,18.73
2022-08-23T07:21:53.198Z,19.65
2022-08-23T07:23:54.530Z,20.28
2022-08-23T07:25:55.684Z,20.74
2022-08-23T07:27:56.894Z,21.33
2022-08-23T07:29:58.000Z,20.89
2022-08-23T07:31:59.660Z,21.46
2022-08-23T07:34:00.546Z,20.87
2022-08-23T07:36:01.580Z,20.44
2022-08-23T07:38:02.871Z,20.6
2022-08-23T07:40:03.759Z,20.14
2022-08-23T07:42:07.003Z,20.52
2022-08-23T07:44:06.442Z,21.12
2022-08-23T07:46:07.393Z,21.55
2022-08-23T07:48:08.536Z,22.36
2022-08-23T07:50:09.893Z,22.27
2022-08-23T07:52:12.109Z,21.78
2022-08-23T07:54:13.101Z,21.82
2022-08-23T07:56:14.033Z,21.91
2022-08-23T07:58:14.818Z,22.38
2022-08-23T08:00:15.655Z,22.54
2022-08-23T08:02:17.303Z,22.21
2022-08-23T08:04:18.400Z,22.1
2022-08-23T08:06:19.970Z,22.51
2022-08-23T08:08:21.664Z,23.17
2022-08-23T08:10:22.852Z,23.28
2022-08-23T08:12:23.634Z,23.88
2022-08-23T08:14:24.726Z,23.56
2022-08-23T08:16:26.086Z,23.86
2022-08-23T08:18:26.848Z,23.69
2022-08-23T08:20:27.982Z,23.83
2022-08-23T08:22:28.832Z,23.59
2022-08-23T08:24:30.224Z,24.03
2022-08-23T08:26:31.148Z,23.45
2022-08-23T08:28:32.666Z,23.8
2022-08-23T08:30:33.454Z,23.52
2022-08-23T08:32:34.951Z,23.23
2022-08-23T08:34:36.693Z,23.82
2022-08-23T08:36:38.285Z,24.5
2022-08-23T08:38:48.112Z,24.78
2022-08-23T08:40:39.917Z,24.43
2022-08-23T08:42:41.394Z,24.87
2022-08-23T08:44:43.392Z,25.57
2022-08-23T08:46:44.605Z,25.59
2022-08-23T08:48:46.056Z,25.81
2022-08-23T08:50:46.927Z,25.82
2022-08-23T08:52:48.427Z,26.13
2022-08-23T08:54:49.390Z,25.93
2022-08-23T08:56:50.556Z,25.61
2022-08-23T08:58:51.484Z,25.89
2022-08-23T09:00:55.744Z,25.72
2022-08-23T09:02:54.818Z,25.88
2022-08-23T09:04:55.967Z,26.19
2022-08-23T09:06:57.037Z,25.82
2022-08-23T09:08:58.315Z,26.08
2022-08-23T09:11:00.079Z,26.1
2022-08-23T09:13:01.487Z,26.16
2022-08-23T09:17:05.468Z,26.41
2022-08-23T09:19:05.149Z,26.06
2022-08-23T09:21:06.471Z,26.36
2022-08-23T09:23:07.857Z,26.88
2022-08-23T09:25:10.282Z,26.37
2022-08-23T09:27:10.128Z,25.99
2022-08-23T09:29:11.366Z,26.25
2022-08-23T09:31:12.241Z,26.68
2022-08-23T09:33:13.137Z,26.69
2022-08-23T09:35:14.729Z,26.55
2022-08-23T09:37:15.956Z,25.78
2022-08-23T09:39:17.515Z,26.21
2022-08-23T09:41:18.686Z,26.3
2022-08-23T09:43:20.239Z,26.34
2022-08-23T09:45:21.415Z,27.1
2022-08-23T09:47:23.096Z,27.3
2022-08-23T09:49:24.332Z,27
2022-08-23T09:51:25.281Z,26.93
2022-08-23T09:53:26.213Z,26.15
2022-08-23T09:55:27.594Z,26.48
2022-08-23T09:57:28.559Z,26.35
2022-08-23T09:59:29.986Z,26.66
2022-08-23T10:01:32.580Z,27.31
2022-08-23T10:03:31.787Z,27.5
2022-08-23T10:05:33.105Z,27.73
2022-08-23T10:07:34.685Z,27.65
2022-08-23T10:09:36.241Z,27.64
2022-08-23T10:11:37.754Z,27.85
2022-08-23T10:13:39.302Z,27.09
2022-08-23T10:15:40.164Z,27.68
2022-08-23T10:17:41.990Z,27.72
2022-08-23T10:19:42.968Z,27.85
2022-08-23T10:21:44.340Z,27.56
2022-08-23T10:23:45.828Z,27.66
2022-08-23T10:25:46.711Z,27.47
2022-08-23T10:27:47.675Z,27.27
2022-08-23T10:29:49.001Z,27.36
2022-08-23T10:31:49.962Z,27.21
2022-08-23T10:33:51.304Z,27.87
2022-08-23T10:35:52.785Z,27.61
2022-08-23T10:37:53.712Z,27.5
2022-08-23T10:39:56.684Z,27.76
2022-08-23T10:41:56.453Z,27.7
2022-08-23T10:43:57.676Z,27.79
2022-08-23T10:46:00.486Z,28.54
2022-08-23T10:47:59.887Z,28.59
2022-08-23T10:50:00.936Z,28.88
2022-08-23T10:52:02.087Z,28.5
2022-08-23T10:54:02.961Z,28.64
2022-08-23T10:58:04.815Z,27.99
2022-08-23T11:00:05.803Z,28.43
2022-08-23T11:02:07.243Z,28.82
2022-08-23T11:04:08.821Z,28.89
2022-08-23T11:06:10.129Z,27.87
2022-08-23T11:08:11.843Z,28.9
2022-08-23T11:10:16.480Z,28.58
2022-08-23T11:12:13.952Z,28.82
2022-08-23T11:14:15.718Z,28.82
2022-08-23T11:16:17.441Z,28.93
2022-08-23T11:18:18.210Z,28.83
2022-08-23T11:20:19.438Z,29.34
2022-08-23T11:22:20.276Z,29.86
2022-08-23T11:24:21.620Z,29.94
2022-08-23T11:26:22.938Z,29.78
2022-08-23T11:28:24.002Z,28.96
2022-08-23T11:30:25.380Z,28.92
2022-08-23T11:32:29.765Z,28.64
2022-08-23T11:34:29.786Z,28.9
2022-08-23T11:36:29.306Z,28.84
2022-08-23T11:38:30.961Z,29.31
2022-08-23T11:40:32.309Z,28.41
2022-08-23T11:42:33.078Z,29.08
2022-08-23T11:44:34.405Z,28.34
2022-08-23T11:46:35.516Z,29.23
2022-08-23T11:48:36.971Z,29.14
2022-08-23T11:50:38.032Z,28.81
2022-08-23T11:52:39.662Z,29.18
2022-08-23T11:54:41.016Z,29.54
2022-08-23T11:56:46.123Z,29.45
2022-08-23T11:58:43.084Z,29.81
2022-08-23T12:00:43.912Z,29.64
2022-08-23T12:02:44.812Z,29.61
2022-08-23T12:04:46.019Z,29.64
2022-08-23T12:06:50.759Z,29.26
2022-08-23T12:08:48.092Z,29.56
2022-08-23T12:10:49.584Z,29.23
2022-08-23T12:12:50.659Z,29.79
2022-08-23T12:14:52.096Z,28.83
2022-08-23T12:16:53.373Z,28.91
2022-08-23T12:18:54.855Z,28.77
2022-08-23T12:20:56.475Z,29.06
2022-08-23T12:22:57.949Z,29.63
2022-08-23T12:24:59.223Z,29.78
2022-08-23T12:27:00.454Z,30.28
2022-08-23T12:29:01.662Z,29.55
2022-08-23T12:31:07.649Z,29.21
2022-08-23T12:33:03.989Z,29.01
2022-08-23T12:35:05.670Z,29.81
2022-08-23T12:39:07.956Z,30.03
2022-08-23T12:41:09.274Z,30.18
2022-08-23T12:43:10.838Z,30.52
2022-08-23T12:45:12.361Z,30.32
2022-08-23T12:47:13.238Z,30.36
2022-08-23T12:49:15.074Z,29.85
2022-08-23T12:51:15.203Z,29.81
2022-08-23T12:53:16.737Z,29.26
2022-08-23T12:55:17.524Z,28.84
2022-08-23T12:57:28.957Z,28.87
2022-08-23T12:59:20.171Z,29.65
2022-08-23T13:01:21.596Z,29.87
2022-08-23T13:03:22.629Z,29.8
2022-08-23T13:05:24.282Z,29.9
2022-08-23T13:07:25.898Z,29.46
2022-08-23T13:09:27.587Z,29.08
2022-08-23T13:11:28.019Z,28.93
2022-08-23T13:13:29.366Z,29.65
2022-08-23T13:15:30.802Z,30.09
2022-08-23T13:17:32.600Z,30.44
2022-08-23T13:19:33.385Z,30.2
2022-08-23T13:21:39.559Z,30.55
2022-08-23T13:23:35.680Z,30.48
2022-08-23T13:25:37.072Z,30.24
2022-08-23T13:27:38.240Z,29.99
2022-08-23T13:30:23.120Z,30.98
2022-08-23T13:32:24.819Z,30.08
2022-08-23T13:34:25.967Z,30.64
2022-08-23T13:36:26.769Z,29.41
2022-08-23T13:38:28.239Z,29.72
2022-08-23T13:40:29.169Z,30.28
2022-08-23T13:42:30.033Z,30.04
2022-08-23T13:44:31.567Z,30.09
2022-08-23T13:46:33.048Z,30.22
2022-08-23T13:48:34.042Z,30.37
2022-08-23T13:50:35.475Z,30.12
2022-08-23T13:53:02.996Z,30
2022-08-23T13:54:37.996Z,30.2
2022-08-23T13:56:39.949Z,30.29
2022-08-23T13:58:40.679Z,30.09
2022-08-23T14:00:45.718Z,30.8
2022-08-23T14:02:43.599Z,30.12
2022-08-23T14:04:44.427Z,29.98
2022-08-23T14:06:46.854Z,30.61
2022-08-23T14:08:47.443Z,30.66
2022-08-23T14:10:48.803Z,30.74
2022-08-23T14:12:50.040Z,30.08
2022-08-23T14:14:50.972Z,30.15
2022-08-23T14:20:56.025Z,30.08
2022-08-23T14:22:56.852Z,30.4
2022-08-23T14:24:58.374Z,30.89
2022-08-23T14:26:59.399Z,30.2
2022-08-23T14:29:00.777Z,30.37
2022-08-23T14:31:02.514Z,30.58
2022-08-23T14:33:03.367Z,30.21
2022-08-23T14:35:04.043Z,30.51
2022-08-23T14:38:00.936Z,31.1
2022-08-23T14:39:07.030Z,31.05
2022-08-23T14:41:07.848Z,30.98
2022-08-23T14:43:08.739Z,30.26
2022-08-23T14:45:09.460Z,29.68
2022-08-23T14:47:10.635Z,29.9
2022-08-23T14:49:12.145Z,29.29
2022-08-23T14:51:13.342Z,29.29
2022-08-23T14:53:14.147Z,29.05
2022-08-23T14:55:15.117Z,29.52
2022-08-23T14:57:15.924Z,29.49
2022-08-23T14:59:17.324Z,29.52
2022-08-23T15:01:19.010Z,30.1
2022-08-23T15:03:19.749Z,29.83
2022-08-23T15:05:20.429Z,30.03
2022-08-23T15:07:21.775Z,29.32
2022-08-23T15:09:22.529Z,29.6
2022-08-23T15:13:29.966Z,29.61
2022-08-23T15:15:26.189Z,29.27
2022-08-23T15:17:31.081Z,29.42
2022-08-23T15:19:28.582Z,29.81
2022-08-23T15:21:30.085Z,29.95
2022-08-23T15:23:31.931Z,29.54
2022-08-23T15:25:33.139Z,29.55
2022-08-23T15:27:34.408Z,29.79
2022-08-23T15:29:35.739Z,29.81
2022-08-23T15:31:37.274Z,29.56
2022-08-23T15:33:38.693Z,29.36
2022-08-23T15:35:40.464Z,29.44
2022-08-23T15:37:41.483Z,29.4
2022-08-23T15:39:42.770Z,29.13
2022-08-23T15:41:44.030Z,29.33
2022-08-23T15:43:45.437Z,29.43
2022-08-23T15:45:46.609Z,29.27
2022-08-23T15:47:47.073Z,29.11
2022-08-23T15:49:48.044Z,29.2
2022-08-23T15:51:49.597Z,29.38
2022-08-23T15:53:50.545Z,29.31
2022-08-23T15:55:51.558Z,29.84
2022-08-23T15:57:53.003Z,29.63
2022-08-23T15:59:53.973Z,29.69
2022-08-23T16:01:55.447Z,29.29
2022-08-23T16:03:56.647Z,28.98
2022-08-23T16:05:58.062Z,29.09
2022-08-23T16:07:59.445Z,29.04
2022-08-23T16:10:00.079Z,28.61
2022-08-23T16:12:01.115Z,28.53
2022-08-23T16:14:02.000Z,28.71
2022-08-23T16:16:02.853Z,29.21
2022-08-23T16:18:03.824Z,28.89
2022-08-23T16:20:05.493Z,29
2022-08-23T16:22:07.174Z,29.27
2022-08-23T16:24:08.179Z,28.92
2022-08-23T16:26:09.798Z,29.52
2022-08-23T16:28:10.576Z,29.79
2022-08-23T16:30:12.517Z,28.98
2022-08-23T16:32:13.478Z,29.04
2022-08-23T16:34:15.038Z,28.91
2022-08-23T16:36:16.738Z,28.89
2022-08-23T16:38:17.648Z,28.82
2022-08-23T16:40:19.273Z,28.77
2022-08-23T16:42:20.321Z,28.86
2022-08-23T16:44:21.980Z,28.79
2022-08-23T16:46:23.574Z,28.62
2022-08-23T16:48:24.374Z,28.66
2022-08-23T16:50:25.624Z,29.1
2022-08-23T16:54:28.754Z,29.57
2022-08-23T16:56:29.731Z,29.56
2022-08-23T16:58:30.831Z,28.75
2022-08-23T17:00:31.991Z,28.63
2022-08-23T17:02:33.424Z,28.63
2022-08-23T17:04:34.539Z,28.42
2022-08-23T17:06:35.938Z,28.55
2022-08-23T17:08:36.948Z,28.43
2022-08-23T17:10:38.605Z,28.35
2022-08-23T17:12:40.198Z,28.6
2022-08-23T17:14:40.989Z,28.7
2022-08-23T17:16:42.035Z,28.44
2022-08-23T17:18:43.231Z,28.17
2022-08-23T17:20:44.741Z,28.1
2022-08-23T17:22:45.667Z,27.85
2022-08-23T17:24:47.350Z,27.8
2022-08-23T17:26:48.254Z,27.58
2022-08-23T17:28:49.691Z,27.51
2022-08-23T17:30:50.803Z,27.37
2022-08-23T17:32:52.374Z,27.23
2022-08-23T17:34:53.908Z,27.21
2022-08-23T17:36:55.511Z,27.13
2022-08-23T17:38:56.730Z,27.02
2022-08-23T17:40:58.025Z,26.89
2022-08-23T17:42:59.268Z,26.81
2022-08-23T17:45:00.563Z,26.7
2022-08-23T17:47:05.925Z,26.6
2022-08-23T17:49:03.094Z,26.49
2022-08-23T17:51:04.233Z,26.42
2022-08-23T17:53:05.942Z,26.3
2022-08-23T17:55:07.706Z,26.09
2022-08-23T17:57:09.503Z,26
2022-08-23T17:59:10.571Z,25.94
2022-08-23T18:01:11.618Z,25.88
2022-08-23T18:03:13.379Z,25.76
2022-08-23T18:05:14.186Z,25.61
2022-08-23T18:07:15.255Z,25.46
2022-08-23T18:09:16.229Z,25.33
2022-08-23T18:11:17.876Z,25.2
2022-08-23T18:13:19.421Z,25.07
2022-08-23T18:15:20.327Z,24.91
2022-08-23T18:17:22.014Z,24.85
2022-08-23T18:19:23.021Z,24.81
2022-08-23T18:21:24.583Z,24.7
2022-08-23T18:23:25.706Z,24.53
2022-08-23T18:25:27.396Z,24.43
2022-08-23T18:27:28.838Z,24.34
2022-08-23T18:29:29.835Z,24.27
2022-08-23T18:31:31.223Z,24.23
2022-08-23T18:35:33.292Z,23.99
2022-08-23T18:37:34.231Z,23.86
2022-08-23T18:39:35.316Z,23.79
2022-08-23T18:41:36.343Z,23.67
2022-08-23T18:43:37.828Z,23.57
2022-08-23T18:45:38.723Z,23.44
2022-08-23T18:47:40.160Z,23.26
2022-08-23T18:49:41.710Z,23.32
2022-08-23T18:51:42.579Z,23.38
2022-08-23T18:53:43.921Z,23.55
2022-08-23T18:55:44.888Z,23.53
2022-08-23T18:57:46.201Z,23.5
2022-08-23T18:59:47.343Z,23.37
2022-08-23T19:01:49.145Z,23.18
2022-08-23T19:03:49.961Z,23.06
2022-08-23T19:05:51.286Z,22.88
2022-08-23T19:07:52.465Z,22.69
2022-08-23T19:09:54.093Z,22.52
2022-08-23T19:11:55.027Z,22.3
2022-08-23T19:13:56.484Z,22.05
2022-08-23T19:15:57.462Z,21.75
2022-08-23T19:17:58.713Z,21.69
2022-08-23T19:19:59.562Z,21.56
2022-08-23T19:22:00.775Z,21.71
2022-08-23T19:24:01.878Z,21.77
2022-08-23T19:26:04.183Z,21.86
2022-08-23T19:28:04.015Z,22.15
2022-08-23T19:30:05.900Z,22.14
2022-08-23T19:32:07.141Z,22.11
2022-08-23T19:34:08.433Z,22
2022-08-23T19:36:19.132Z,21.87
2022-08-23T19:38:10.989Z,21.79
2022-08-23T19:40:12.645Z,21.62
2022-08-23T19:42:14.008Z,21.51
2022-08-23T19:44:17.629Z,21.35
2022-08-23T19:46:17.030Z,21.23
2022-08-23T19:48:17.952Z,21.13
2022-08-23T19:50:22.715Z,21.01
2022-08-23T19:52:20.742Z,21.03
2022-08-23T19:54:22.488Z,21.03
2022-08-23T19:56:24.183Z,20.79
2022-08-23T19:58:25.310Z,20.5
2022-08-23T20:00:27.002Z,20.69
2022-08-23T20:02:28.647Z,20.82
2022-08-23T20:04:29.502Z,20.74
2022-08-23T20:06:30.384Z,20.6
2022-08-23T20:08:31.774Z,20.54
2022-08-23T20:10:32.928Z,20.42
2022-08-23T20:12:33.810Z,20.35
2022-08-23T20:13:17.336Z,20.34
2022-08-23T20:15:18.623Z,20.2
2022-08-23T20:17:20.808Z,20.3
2022-08-23T20:19:22.184Z,20.19
2022-08-23T20:21:23.793Z,20.09
2022-08-23T20:23:23.974Z,19.99
2022-08-23T20:25:25.377Z,19.89
2022-08-23T20:27:31.037Z,19.86
2022-08-23T20:29:28.015Z,19.84
2022-08-23T20:31:29.599Z,19.82
2022-08-23T20:33:30.906Z,19.79
2022-08-23T20:35:31.968Z,19.85
2022-08-23T20:37:33.364Z,19.76
2022-08-23T20:39:34.741Z,19.79
2022-08-23T20:41:36.309Z,19.72
2022-08-23T20:43:38.107Z,19.73
2022-08-23T20:45:39.087Z,19.74
2022-08-23T20:47:40.567Z,19.7
2022-08-23T20:49:41.865Z,19.65
2022-08-23T20:51:43.255Z,19.49
2022-08-23T20:53:44.299Z,19.62
2022-08-23T20:55:45.797Z,19.77
2022-08-23T20:57:47.073Z,19.69
2022-08-23T20:59:48.064Z,19.57
2022-08-23T21:01:49.055Z,19.47
2022-08-23T21:03:51.540Z,19.36
2022-08-23T21:05:51.985Z,19.32
2022-08-23T21:07:53.648Z,19.11
2022-08-23T21:09:54.852Z,18.88
2022-08-23T21:11:56.286Z,18.75
2022-08-23T21:13:57.511Z,18.72
2022-08-23T21:15:58.607Z,18.65
2022-08-23T21:17:59.744Z,18.61
2022-08-23T21:20:00.657Z,18.66
2022-08-23T21:22:02.495Z,18.64
2022-08-23T21:24:03.474Z,18.69
2022-08-23T21:26:04.547Z,18.82
2022-08-23T21:28:05.732Z,18.69
2022-08-23T21:30:07.007Z,18.58
2022-08-23T21:32:07.942Z,18.5
2022-08-23T21:34:09.339Z,18.5
2022-08-23T21:36:10.720Z,18.14
2022-08-23T21:38:12.400Z,18.07
2022-08-23T21:40:14.005Z,18.28
2022-08-23T21:42:15.609Z,18.09
2022-08-23T21:44:16.791Z,17.94
2022-08-23T21:46:18.435Z,18.05
2022-08-23T21:48:19.960Z,17.91
2022-08-23T21:50:21.725Z,18.06
2022-08-23T21:52:22.956Z,18.04
2022-08-23T21:54:24.819Z,18.07
2022-08-23T21:56:26.083Z,17.96
2022-08-23T21:58:26.848Z,17.85
2022-08-23T22:00:27.979Z,17.8
2022-08-23T22:02:29.183Z,17.76
2022-08-23T22:04:30.893Z,17.68
2022-08-23T22:06:32.262Z,17.57
2022-08-23T22:08:33.535Z,17.43
2022-08-23T22:10:34.613Z,17.33
2022-08-23T22:12:36.349Z,17.39
2022-08-23T22:14:37.363Z,17.73
2022-08-23T22:16:39.193Z,17.88
2022-08-23T22:18:41.006Z,17.89
2022-08-23T22:20:42.207Z,17.86
2022-08-23T22:22:43.368Z,17.8
2022-08-23T22:24:44.287Z,17.76
2022-08-23T22:26:45.635Z,17.81
2022-08-23T22:28:47.490Z,17.8
2022-08-23T22:30:49.074Z,17.76
2022-08-23T22:32:50.177Z,17.67
2022-08-23T22:34:51.266Z,17.6
2022-08-23T22:36:52.918Z,17.51
2022-08-23T22:38:54.533Z,17.54
2022-08-23T22:40:55.995Z,17.72
2022-08-23T22:42:57.712Z,17.69
2022-08-23T22:44:58.888Z,17.58
2022-08-23T22:47:00.475Z,17.53
2022-08-23T22:49:01.646Z,17.55
2022-08-23T22:51:03.355Z,17.32
2022-08-23T22:53:04.628Z,17.13
2022-08-23T22:55:06.077Z,16.99
2022-08-23T22:57:07.095Z,17.12
2022-08-23T22:59:08.575Z,17.14
2022-08-23T23:01:10.822Z,17.05
2022-08-23T23:03:11.728Z,17
2022-08-23T23:05:13.506Z,16.97
2022-08-23T23:07:14.409Z,17.02
2022-08-23T23:09:15.722Z,17.09
2022-08-23T23:11:17.544Z,17.04
2022-08-23T23:13:18.746Z,17.09
2022-08-23T23:15:19.739Z,17.1
2022-08-23T23:33:32.616Z,16.42
2022-08-23T23:35:33.683Z,16.58
2022-08-23T23:37:35.429Z,16.48
2022-08-23T23:39:36.809Z,16.39
2022-08-23T23:43:39.307Z,16.12
2022-08-23T23:45:40.957Z,15.94
2022-08-23T23:47:42.162Z,15.85
2022-08-23T23:49:43.413Z,15.81
2022-08-23T23:51:44.801Z,15.78
2022-08-23T23:53:46.523Z,15.71
2022-08-23T23:55:48.020Z,15.55
2022-08-23T23:57:49.771Z,15.5
2022-08-23T23:59:50.863Z,15.44
